Terminal Aerodrome Forecast
Issued by NWS Twin Cities, MN

Home | Current Version | Previous Version | Text Only | Print | Product List | Glossary Off
Versions: 1 2 3 4 5 6 7 8 9 10 11 12 13 14 15 16 17

486
FTUS43 KMPX 191742
TAFEAU
TAF
KEAU 191742Z 1918/2018 31007KT P6SM OVC025
     FM192000 34010KT P6SM OVC020
     FM200100 02009KT P6SM BKN040
     FM200600 05006KT P6SM BKN250=

USA.gov is the U.S. government's official web portal to all federal, state and local government web resources and services.